Terminal Aerodrome Forecast
Issued by NWS

Home | Current Version | Previous Version | Text Only | Print | Product List | Glossary On
Versions: 1 2 3 4 5 6 7 8 9 10 11 12 13 14
000
FTUS45 KPSR 242109 AAA
TAFIPL
TAF AMD
KIPL 242109Z 2421/2518 34008KT P6SM SKC
     FM250100 29006G12KT P6SM SKC=

USA.gov is the U.S. government's official web portal to all federal, state and local government web resources and services.